Time;durP1;ratioP1;P1;durP2;ratioP2;P2;SDS_P1;SDS_P2;PMS_P1;PMS_P2;Temp;Humidity;BMP_temperature;BMP_pressure;BME280_temperature;BME280_humidity;BME280_pressure;Samples;Min_cycle;Max_cycle;Signal;HPM_P1;HPM_P2
2023/04/08 00:00:49;;;;;;;;;;;;;;;11.15;78.95;101937.47;7355989;19;19915;-67
2023/04/08 00:03:16;;;;;;;;;;;;;;;11.12;79.77;101940.38;7352607;19;19918;-66
2023/04/08 00:05:44;;;;;;;;;;;;;;;11.06;80.06;101935.63;7352869;19;19919;-66
2023/04/08 00:08:10;;;;;;;;;;;;;;;11.05;80.85;101936.56;7355182;19;20006;-65
2023/04/08 00:10:37;;;;;;;;;;;;;;;11.00;80.60;101936.97;7356431;19;20586;-67
2023/04/08 00:13:04;;;;;;;;;;;;;;;10.96;80.40;101937.34;7354875;19;19923;-66
2023/04/08 00:15:32;;;;;;;;;;;;;;;10.92;80.51;101941.22;7354403;19;19914;-65
2023/04/08 00:17:59;;;;;;;;;;;;;;;10.91;81.09;101940.38;7352304;19;19994;-65
2023/04/08 00:20:26;;;;;;;;;;;;;;;10.88;81.53;101935.34;7355424;19;19929;-67
2023/04/08 00:22:53;;;;;;;;;;;;;;;10.85;81.77;101940.88;7356868;19;19919;-66
2023/04/08 00:25:20;;;;;;;;;;;;;;;10.81;81.58;101941.25;7353767;19;20620;-68
2023/04/08 00:27:50;;;;;;;;;;;;;;;10.76;81.66;101944.28;7355545;19;20279;-64
2023/04/08 00:30:18;;;;;;;;;;;;;;;10.73;81.53;101940.06;7356723;19;19939;-66
2023/04/08 00:32:45;;;;;;;;;;;;;;;10.71;82.30;101939.38;7352487;19;20415;-66
2023/04/08 00:35:12;;;;;;;;;;;;;;;10.68;82.76;101942.25;7351362;19;19919;-65
2023/04/08 00:37:40;;;;;;;;;;;;;;;10.68;83.25;101941.41;7354188;19;19958;-65
2023/04/08 00:40:07;;;;;;;;;;;;;;;10.64;82.89;101943.47;7354598;19;19930;-66
2023/04/08 00:42:34;;;;;;;;;;;;;;;10.62;82.71;101948.00;7357013;19;19927;-66
2023/04/08 00:45:01;;;;;;;;;;;;;;;10.62;82.74;101941.91;7351409;19;19986;-62
2023/04/08 00:47:29;;;;;;;;;;;;;;;10.60;83.23;101943.84;7350954;19;20098;-61
2023/04/08 00:49:56;;;;;;;;;;;;;;;10.57;83.43;101950.19;7354399;19;19931;-62
2023/04/08 00:52:23;;;;;;;;;;;;;;;10.53;83.89;101946.13;7356316;19;19921;-63
2023/04/08 00:54:50;;;;;;;;;;;;;;;10.54;84.01;101946.97;7350703;19;19919;-63
2023/04/08 00:57:17;;;;;;;;;;;;;;;10.50;83.55;101945.56;7350367;19;19982;-62
2023/04/08 00:59:44;;;;;;;;;;;;;;;10.48;83.90;101943.03;7355262;19;19974;-63
2023/04/08 01:02:14;;;;;;;;;;;;;;;10.46;84.27;101944.16;7351648;19;19918;-64
2023/04/08 01:04:42;;;;;;;;;;;;;;;10.43;85.12;101939.09;7351835;19;19923;-63
2023/04/08 01:07:12;;;;;;;;;;;;;;;10.42;85.09;101948.78;7350839;19;19919;-64
2023/04/08 01:09:42;;;;;;;;;;;;;;;10.40;85.04;101945.47;7357311;19;21136;-63
2023/04/08 01:12:11;;;;;;;;;;;;;;;10.36;84.81;101946.69;7356101;19;19990;-62
2023/04/08 01:14:41;;;;;;;;;;;;;;;10.35;84.70;101945.00;7353490;19;19982;-62
2023/04/08 01:17:08;;;;;;;;;;;;;;;10.35;85.16;101952.91;7349911;19;19990;-63
2023/04/08 01:19:38;;;;;;;;;;;;;;;10.34;85.68;101943.34;7350685;19;19918;-63
2023/04/08 01:22:08;;;;;;;;;;;;;;;10.32;85.92;101942.59;7355411;19;19925;-63
2023/04/08 01:24:38;;;;;;;;;;;;;;;10.33;86.44;101943.44;7352324;19;20039;-62
2023/04/08 01:27:05;;;;;;;;;;;;;;;10.30;86.58;101944.53;7353481;19;21497;-63
2023/04/08 01:29:33;;;;;;;;;;;;;;;10.24;86.14;101948.50;7354018;19;19925;-62
2023/04/08 01:32:01;;;;;;;;;;;;;;;10.19;86.08;101940.13;7351593;19;19930;-62
2023/04/08 01:34:28;;;;;;;;;;;;;;;10.17;85.71;101949.09;7349798;19;19918;-63
2023/04/08 01:36:56;;;;;;;;;;;;;;;10.17;86.58;101946.47;7351540;19;19925;-62
2023/04/08 01:39:25;;;;;;;;;;;;;;;10.21;88.83;101942.63;7353587;19;21293;-62
2023/04/08 01:41:54;;;;;;;;;;;;;;;10.19;88.12;101944.56;7351468;19;19958;-63
2023/04/08 01:44:21;;;;;;;;;;;;;;;10.14;87.82;101942.25;7351507;19;19958;-63
2023/04/08 01:46:49;;;;;;;;;;;;;;;10.10;87.49;101940.84;7349321;19;20718;-63
2023/04/08 01:49:16;;;;;;;;;;;;;;;10.09;87.50;101940.97;7352414;19;19923;-62
2023/04/08 01:51:45;;;;;;;;;;;;;;;10.04;86.47;101945.75;7353221;19;19936;-62
2023/04/08 01:54:12;;;;;;;;;;;;;;;10.03;86.25;101944.06;7351139;19;20582;-62
2023/04/08 01:56:40;;;;;;;;;;;;;;;10.01;86.55;101946.81;7345130;19;20555;-62
2023/04/08 01:59:10;;;;;;;;;;;;;;;10.03;86.64;101944.06;7353748;19;20384;-63
2023/04/08 02:01:37;;;;;;;;;;;;;;;10.06;86.59;101954.31;7352376;19;19954;-64
2023/04/08 02:04:04;;;;;;;;;;;;;;;10.07;87.70;101951.59;7352260;19;20367;-62
2023/04/08 02:06:32;;;;;;;;;;;;;;;10.08;87.24;101947.16;7351077;19;20252;-64
2023/04/08 02:09:00;;;;;;;;;;;;;;;10.06;86.54;101954.31;7353011;19;19945;-63
2023/04/08 02:11:28;;;;;;;;;;;;;;;10.04;86.65;101951.84;7356572;19;19922;-63
2023/04/08 02:13:55;;;;;;;;;;;;;;;10.00;86.54;101945.16;7352912;19;20299;-63
2023/04/08 02:16:23;;;;;;;;;;;;;;;9.96;85.94;101946.34;7350599;19;19926;-62
2023/04/08 02:18:55;;;;;;;;;;;;;;;9.94;86.32;101943.00;7350860;19;19930;-63
2023/04/08 02:21:26;;;;;;;;;;;;;;;9.96;87.42;101933.19;7353461;19;19922;-63
2023/04/08 02:23:54;;;;;;;;;;;;;;;9.97;88.06;101937.50;7352777;19;19925;-63
2023/04/08 02:26:22;;;;;;;;;;;;;;;9.95;87.01;101933.34;7350881;19;19994;-64
2023/04/08 02:28:49;;;;;;;;;;;;;;;9.94;86.37;101939.53;7351974;19;21252;-63
2023/04/08 02:31:20;;;;;;;;;;;;;;;9.87;85.91;101934.75;7351523;19;19915;-62
2023/04/08 02:33:48;;;;;;;;;;;;;;;9.83;85.79;101935.13;7347387;19;20337;-62
2023/04/08 02:36:15;;;;;;;;;;;;;;;9.83;86.50;101937.75;7348845;19;19921;-62
2023/04/08 02:38:46;;;;;;;;;;;;;;;9.83;86.70;101938.59;7351204;19;20405;-62
2023/04/08 02:41:14;;;;;;;;;;;;;;;9.85;86.90;101938.47;7355645;19;20046;-64
2023/04/08 02:43:42;;;;;;;;;;;;;;;9.85;86.85;101946.38;7352324;19;19918;-62
2023/04/08 02:46:10;;;;;;;;;;;;;;;9.82;87.07;101947.44;7346951;19;21163;-63
2023/04/08 02:48:37;;;;;;;;;;;;;;;9.84;87.30;101956.03;7350554;19;19922;-62
2023/04/08 02:51:04;;;;;;;;;;;;;;;9.91;89.55;101952.91;7352263;19;19953;-63
2023/04/08 02:53:31;;;;;;;;;;;;;;;9.86;89.05;101954.13;7353421;19;19923;-62
2023/04/08 02:55:57;;;;;;;;;;;;;;;9.85;88.10;101960.31;7354762;19;19917;-61
2023/04/08 02:58:24;;;;;;;;;;;;;;;9.83;87.91;101962.25;7350961;19;19922;-62
2023/04/08 03:00:51;;;;;;;;;;;;;;;9.83;89.17;101961.41;7360886;19;19925;-62
2023/04/08 03:03:18;;;;;;;;;;;;;;;9.85;89.68;101967.41;7358424;19;19990;-63
2023/04/08 03:05:45;;;;;;;;;;;;;;;9.84;89.51;101958.69;7354806;19;19926;-62
2023/04/08 03:08:12;;;;;;;;;;;;;;;9.83;89.59;101975.41;7352952;19;19918;-63
2023/04/08 03:10:39;;;;;;;;;;;;;;;9.81;90.06;101968.56;7355146;19;20328;-62
2023/04/08 03:13:06;;;;;;;;;;;;;;;9.77;89.78;101969.78;7357130;19;19925;-61
2023/04/08 03:15:33;;;;;;;;;;;;;;;9.73;89.39;101982.31;7357718;19;19998;-61
2023/04/08 03:18:00;;;;;;;;;;;;;;;9.70;89.33;101974.66;7356105;19;19935;-63
2023/04/08 03:20:27;;;;;;;;;;;;;;;9.72;89.79;101970.13;7358043;19;19922;-62
2023/04/08 03:22:54;;;;;;;;;;;;;;;9.73;90.08;101969.19;7358741;19;19927;-63
2023/04/08 03:25:21;;;;;;;;;;;;;;;9.74;90.06;101973.50;7354909;19;20317;-63
2023/04/08 03:27:47;;;;;;;;;;;;;;;9.75;90.07;101971.69;7356118;19;19926;-63
2023/04/08 03:30:14;;;;;;;;;;;;;;;9.73;89.97;101982.31;7357367;19;19919;-64
2023/04/08 03:32:42;;;;;;;;;;;;;;;9.72;90.13;101983.28;7357569;19;19994;-62
2023/04/08 03:35:09;;;;;;;;;;;;;;;9.73;90.75;101977.06;7355038;19;19994;-63
2023/04/08 03:37:36;;;;;;;;;;;;;;;9.72;90.78;101979.81;7358367;19;20335;-63
2023/04/08 03:40:03;;;;;;;;;;;;;;;9.72;91.01;101987.69;7359922;19;19937;-63
2023/04/08 03:42:30;;;;;;;;;;;;;;;9.72;90.46;101988.53;7360243;19;20380;-63
2023/04/08 03:44:57;;;;;;;;;;;;;;;9.71;90.01;101991.25;7356083;19;19925;-63
2023/04/08 03:47:24;;;;;;;;;;;;;;;9.68;90.01;101999.41;7352388;19;20320;-63
2023/04/08 03:49:52;;;;;;;;;;;;;;;9.66;90.44;101994.25;7359253;19;20576;-64
2023/04/08 03:52:19;;;;;;;;;;;;;;;9.69;92.29;101998.44;7357697;19;19919;-63
2023/04/08 03:54:46;;;;;;;;;;;;;;;9.68;92.52;101997.59;7353812;19;20281;-62
2023/04/08 03:57:13;;;;;;;;;;;;;;;9.66;92.00;102002.13;7352328;19;19962;-62
2023/04/08 03:59:40;;;;;;;;;;;;;;;9.63;90.97;102002.38;7352578;19;19915;-62
2023/04/08 04:02:07;;;;;;;;;;;;;;;9.63;90.94;102010.25;7354293;19;19925;-62
2023/04/08 04:04:35;;;;;;;;;;;;;;;9.64;92.01;102008.47;7354896;19;19937;-63
2023/04/08 04:07:02;;;;;;;;;;;;;;;9.64;92.54;102005.84;7353060;19;19960;-62
2023/04/08 04:09:29;;;;;;;;;;;;;;;9.62;92.37;102008.56;7357828;19;19967;-63
2023/04/08 04:11:56;;;;;;;;;;;;;;;9.58;91.54;102007.16;7357943;19;19950;-62
2023/04/08 04:14:23;;;;;;;;;;;;;;;9.56;91.12;102011.66;7355256;19;19995;-63
2023/04/08 04:16:50;;;;;;;;;;;;;;;9.58;92.79;102007.16;7355596;19;20464;-62
2023/04/08 04:19:17;;;;;;;;;;;;;;;9.57;93.00;102002.00;7354810;19;19926;-63
2023/04/08 04:21:44;;;;;;;;;;;;;;;9.55;93.14;102009.19;7358105;19;19930;-62
2023/04/08 04:24:12;;;;;;;;;;;;;;;9.52;93.09;102019.91;7354697;19;19990;-62
2023/04/08 04:26:40;;;;;;;;;;;;;;;9.50;92.32;102017.38;7353910;19;20538;-63
2023/04/08 04:29:06;;;;;;;;;;;;;;;9.50;91.94;102020.00;7354019;19;19949;-63
2023/04/08 04:31:33;;;;;;;;;;;;;;;9.48;92.26;102021.09;7355891;19;21275;-61
2023/04/08 04:34:00;;;;;;;;;;;;;;;9.44;92.04;102020.50;7352062;19;20054;-62
2023/04/08 04:36:27;;;;;;;;;;;;;;;9.46;92.85;102021.19;7353600;19;20281;-63
2023/04/08 04:38:55;;;;;;;;;;;;;;;9.47;93.13;102022.03;7357617;19;20269;-62
2023/04/08 04:41:22;;;;;;;;;;;;;;;9.47;92.96;102019.41;7356006;19;19927;-62
2023/04/08 04:43:49;;;;;;;;;;;;;;;9.51;94.25;102031.34;7354604;19;20037;-62
2023/04/08 04:46:16;;;;;;;;;;;;;;;9.50;94.11;102030.53;7351501;19;19939;-63
2023/04/08 04:48:43;;;;;;;;;;;;;;;9.47;92.42;102027.28;7352899;19;19923;-63
2023/04/08 04:51:10;;;;;;;;;;;;;;;9.45;93.17;102036.13;7355419;19;20478;-62
2023/04/08 04:53:37;;;;;;;;;;;;;;;9.47;93.74;102040.44;7353232;19;19926;-62
2023/04/08 04:56:04;;;;;;;;;;;;;;;9.49;94.44;102038.53;7352356;19;19919;-62
2023/04/08 04:58:31;;;;;;;;;;;;;;;9.48;94.35;102036.84;7351753;19;19915;-62
2023/04/08 05:00:58;;;;;;;;;;;;;;;9.45;93.09;102038.75;7350640;19;19923;-63
2023/04/08 05:03:25;;;;;;;;;;;;;;;9.43;92.17;102045.09;7353968;19;19915;-62
2023/04/08 05:05:53;;;;;;;;;;;;;;;9.42;92.71;102046.88;7351769;19;20402;-62
2023/04/08 05:08:20;;;;;;;;;;;;;;;9.44;94.46;102044.13;7354668;19;19910;-63
2023/04/08 05:10:49;;;;;;;;;;;;;;;9.43;94.91;102042.47;7356314;19;19939;-65
2023/04/08 05:13:17;;;;;;;;;;;;;;;9.44;94.85;102046.78;7356359;19;19914;-63
2023/04/08 05:15:44;;;;;;;;;;;;;;;9.41;94.28;102052.22;7350924;19;19923;-62
2023/04/08 05:18:12;;;;;;;;;;;;;;;9.38;93.34;102048.06;7348247;19;19923;-63
2023/04/08 05:20:39;;;;;;;;;;;;;;;9.37;93.13;102056.03;7353911;19;19936;-64
2023/04/08 05:23:06;;;;;;;;;;;;;;;9.34;92.66;102053.66;7353861;19;19923;-63
2023/04/08 05:25:33;;;;;;;;;;;;;;;9.34;93.54;102049.25;7351950;19;19922;-63
2023/04/08 05:28:00;;;;;;;;;;;;;;;9.33;93.29;102055.44;7352026;19;19990;-62
2023/04/08 05:30:27;;;;;;;;;;;;;;;9.35;93.15;102053.53;7354302;19;19918;-63
2023/04/08 05:32:54;;;;;;;;;;;;;;;9.35;92.93;102057.94;7349630;19;20525;-63
2023/04/08 05:35:27;;;;;;;;;;;;;;;9.35;92.90;102060.56;7349170;19;19922;-63
2023/04/08 05:37:54;;;;;;;;;;;;;;;9.37;93.91;102067.41;7352690;19;20236;-63
2023/04/08 05:40:21;;;;;;;;;;;;;;;9.41;94.38;102062.75;7355960;19;20356;-63
2023/04/08 05:42:47;;;;;;;;;;;;;;;9.42;93.33;102067.03;7357778;19;19998;-62
2023/04/08 05:45:15;;;;;;;;;;;;;;;9.42;92.19;102078.41;7349354;19;20003;-63
2023/04/08 05:47:42;;;;;;;;;;;;;;;9.46;93.26;102079.00;7349627;19;19915;-62
2023/04/08 05:50:10;;;;;;;;;;;;;;;9.52;93.57;102072.44;7353030;19;19951;-62
2023/04/08 05:52:41;;;;;;;;;;;;;;;9.55;94.81;102072.25;7353495;19;20034;-61
2023/04/08 05:55:08;;;;;;;;;;;;;;;9.58;95.40;102077.25;7349336;19;19906;-62
2023/04/08 05:57:35;;;;;;;;;;;;;;;9.58;94.75;102072.84;7351159;19;19911;-62
2023/04/08 06:00:03;;;;;;;;;;;;;;;9.59;94.17;102079.78;7351965;19;19914;-63
2023/04/08 06:02:30;;;;;;;;;;;;;;;9.63;94.43;102085.63;7351890;19;19933;-64
2023/04/08 06:04:57;;;;;;;;;;;;;;;9.64;94.01;102084.69;7353285;19;19922;-63
2023/04/08 06:07:24;;;;;;;;;;;;;;;9.66;93.75;102082.75;7351417;19;19934;-62
2023/04/08 06:09:51;;;;;;;;;;;;;;;9.67;92.84;102089.69;7358022;19;20356;-63
2023/04/08 06:12:18;;;;;;;;;;;;;;;9.70;91.73;102089.47;7353336;19;20159;-63
2023/04/08 06:14:46;;;;;;;;;;;;;;;9.74;92.70;102093.53;7350249;19;19937;-64
2023/04/08 06:17:13;;;;;;;;;;;;;;;9.76;93.07;102089.81;7347549;19;20066;-62
2023/04/08 06:19:40;;;;;;;;;;;;;;;9.78;92.35;102094.97;7350762;19;19911;-62
2023/04/08 06:22:07;;;;;;;;;;;;;;;9.79;92.50;102097.50;7352197;19;19939;-63
2023/04/08 06:24:34;;;;;;;;;;;;;;;9.80;91.82;102093.88;7350831;19;19953;-63
2023/04/08 06:27:01;;;;;;;;;;;;;;;9.85;91.78;102097.00;7349600;19;19922;-62
2023/04/08 06:29:28;;;;;;;;;;;;;;;9.91;91.74;102103.59;7352379;19;19925;-65
2023/04/08 06:31:55;;;;;;;;;;;;;;;9.94;91.20;102115.69;7351780;19;19925;-63
2023/04/08 06:34:22;;;;;;;;;;;;;;;9.97;90.79;102110.19;7347573;19;19923;-63
2023/04/08 06:36:50;;;;;;;;;;;;;;;10.01;89.90;102111.63;7348952;19;20507;-64
2023/04/08 06:39:18;;;;;;;;;;;;;;;10.01;88.94;102108.97;7351433;19;19971;-63
2023/04/08 06:41:45;;;;;;;;;;;;;;;10.02;88.62;102100.97;7352246;19;20011;-62
2023/04/08 06:44:12;;;;;;;;;;;;;;;10.05;88.31;102113.06;7350445;19;19954;-62
2023/04/08 06:46:39;;;;;;;;;;;;;;;10.07;88.64;102109.34;7348113;19;19923;-64
2023/04/08 06:49:06;;;;;;;;;;;;;;;10.11;88.41;102121.31;7350312;19;19925;-62
2023/04/08 06:51:33;;;;;;;;;;;;;;;10.18;88.15;102130.44;7353239;19;19923;-63
2023/04/08 06:54:00;;;;;;;;;;;;;;;10.26;87.30;102127.22;7349612;19;19998;-62
2023/04/08 06:56:27;;;;;;;;;;;;;;;10.49;86.46;102121.03;7350045;19;19927;-63
2023/04/08 06:58:54;;;;;;;;;;;;;;;10.85;84.79;102117.28;7350516;19;19929;-63
2023/04/08 07:01:21;;;;;;;;;;;;;;;11.05;84.67;102116.50;7345203;19;20404;-62
2023/04/08 07:03:48;;;;;;;;;;;;;;;11.30;84.99;102122.41;7347316;19;19926;-63
2023/04/08 07:06:15;;;;;;;;;;;;;;;11.72;82.33;102121.50;7348030;19;19956;-63
2023/04/08 07:08:42;;;;;;;;;;;;;;;12.16;80.05;102133.59;7350771;19;19915;-62
2023/04/08 07:11:11;;;;;;;;;;;;;;;12.46;78.43;102127.50;7351202;19;20007;-67
2023/04/08 07:13:38;;;;;;;;;;;;;;;12.61;77.90;102136.72;7350966;19;19999;-63
2023/04/08 07:16:06;;;;;;;;;;;;;;;12.64;77.11;102143.56;7346769;19;19919;-62
2023/04/08 07:18:33;;;;;;;;;;;;;;;12.49;76.42;102143.09;7349321;19;20461;-62
2023/04/08 07:21:02;;;;;;;;;;;;;;;12.37;75.54;102147.63;7349542;19;20592;-63
2023/04/08 07:23:29;;;;;;;;;;;;;;;12.59;75.59;102151.03;7350596;19;19929;-62
2023/04/08 07:26:00;;;;;;;;;;;;;;;12.86;75.07;102153.91;7347969;19;19926;-63
2023/04/08 07:28:28;;;;;;;;;;;;;;;12.94;74.08;102156.72;7350972;19;19955;-62
2023/04/08 07:30:54;;;;;;;;;;;;;;;13.15;73.22;102154.88;7348675;19;20533;-64
2023/04/08 07:33:22;;;;;;;;;;;;;;;13.38;72.65;102150.13;7349665;19;19931;-65
2023/04/08 07:35:49;;;;;;;;;;;;;;;13.70;70.82;102156.00;7345439;19;19922;-63
2023/04/08 07:38:16;;;;;;;;;;;;;;;13.90;69.28;102169.19;7348912;19;19982;-62
2023/04/08 07:40:43;;;;;;;;;;;;;;;14.01;68.86;102161.13;7349781;19;19930;-63
2023/04/08 07:43:10;;;;;;;;;;;;;;;14.11;68.73;102167.22;7358117;19;19915;-62
2023/04/08 07:45:37;;;;;;;;;;;;;;;14.29;66.92;102173.44;7353512;19;20175;-61
2023/04/08 07:48:05;;;;;;;;;;;;;;;14.35;67.08;102178.16;7353239;19;19914;-63
2023/04/08 07:50:32;;;;;;;;;;;;;;;14.51;66.80;102167.00;7357035;19;20015;-64
2023/04/08 07:52:59;;;;;;;;;;;;;;;14.71;65.85;102173.88;7357068;19;20408;-63
2023/04/08 07:55:26;;;;;;;;;;;;;;;14.94;65.14;102177.81;7354864;19;19923;-67
2023/04/08 07:57:53;;;;;;;;;;;;;;;15.35;63.96;102178.25;7357408;19;19994;-63
2023/04/08 08:00:20;;;;;;;;;;;;;;;15.80;61.74;102180.84;7356752;19;19922;-64
2023/04/08 08:02:47;;;;;;;;;;;;;;;16.03;60.36;102182.03;7349731;19;19919;-62
2023/04/08 08:05:14;;;;;;;;;;;;;;;16.10;59.75;102182.25;7354055;19;20392;-62
2023/04/08 08:07:41;;;;;;;;;;;;;;;15.98;60.14;102188.81;7356231;19;20880;-62
2023/04/08 08:10:09;;;;;;;;;;;;;;;15.83;60.72;102193.84;7357019;19;19929;-62
2023/04/08 08:12:36;;;;;;;;;;;;;;;15.87;61.50;102194.34;7358444;19;19926;-64
2023/04/08 08:15:04;;;;;;;;;;;;;;;16.03;59.65;102195.31;7353482;19;20539;-63
2023/04/08 08:17:32;;;;;;;;;;;;;;;15.93;59.38;102191.09;7353337;19;19929;-62
2023/04/08 08:20:01;;;;;;;;;;;;;;;15.48;60.93;102196.47;7357287;19;19998;-63
2023/04/08 08:22:28;;;;;;;;;;;;;;;15.05;63.24;102197.13;7357048;19;20394;-64
2023/04/08 08:24:56;;;;;;;;;;;;;;;14.71;63.63;102203.03;7355345;19;19919;-63
2023/04/08 08:27:23;;;;;;;;;;;;;;;14.44;64.99;102195.88;7354164;19;19918;-62
2023/04/08 08:29:51;;;;;;;;;;;;;;;14.23;65.34;102194.34;7357609;19;20566;-63
2023/04/08 08:32:18;;;;;;;;;;;;;;;14.09;66.00;102199.13;7355459;19;19919;-63
2023/04/08 08:34:45;;;;;;;;;;;;;;;14.00;66.30;102196.50;7351117;19;20006;-63
2023/04/08 08:37:12;;;;;;;;;;;;;;;13.90;66.26;102200.97;7355506;19;19923;-62
2023/04/08 08:39:39;;;;;;;;;;;;;;;13.82;66.24;102201.63;7358925;19;19935;-63
2023/04/08 08:42:17;;;;;;;;;;;;;;;13.77;66.51;102203.88;7356519;19;19919;-63
2023/04/08 08:44:44;;;;;;;;;;;;;;;13.81;67.38;102201.81;7357375;19;19934;-69
2023/04/08 08:47:11;;;;;;;;;;;;;;;13.89;68.88;102205.41;7355272;19;20878;-62
2023/04/08 08:49:38;;;;;;;;;;;;;;;13.91;68.04;102206.13;7356458;19;20372;-62
2023/04/08 08:52:05;;;;;;;;;;;;;;;13.97;65.87;102209.97;7357520;19;19926;-63
2023/04/08 08:54:32;;;;;;;;;;;;;;;13.91;65.53;102206.13;7352069;19;19973;-62
2023/04/08 08:56:59;;;;;;;;;;;;;;;13.87;65.51;102210.00;7355128;19;19923;-63
2023/04/08 08:59:27;;;;;;;;;;;;;;;13.83;64.94;102211.25;7357978;19;19917;-63
2023/04/08 09:01:54;;;;;;;;;;;;;;;13.81;64.63;102215.03;7356650;19;19923;-64
2023/04/08 09:04:21;;;;;;;;;;;;;;;13.73;65.03;102205.13;7349148;19;20276;-62
2023/04/08 09:06:50;;;;;;;;;;;;;;;13.65;64.30;102211.13;7354491;19;19927;-63
2023/04/08 09:09:17;;;;;;;;;;;;;;;13.59;64.31;102209.03;7355131;19;19925;-65
2023/04/08 09:11:45;;;;;;;;;;;;;;;13.66;65.25;102217.25;7355816;19;19947;-61
2023/04/08 09:14:15;;;;;;;;;;;;;;;13.67;65.44;102210.97;7353388;19;19930;-63
2023/04/08 09:16:43;;;;;;;;;;;;;;;13.67;64.19;102209.16;7350113;19;19918;-62
2023/04/08 09:19:11;;;;;;;;;;;;;;;13.69;65.49;102207.22;7353025;19;19922;-62
2023/04/08 09:21:40;;;;;;;;;;;;;;;13.70;65.08;102211.56;7354779;19;19972;-63
2023/04/08 09:24:08;;;;;;;;;;;;;;;13.73;63.45;102201.66;7354356;19;19974;-61
2023/04/08 09:26:36;;;;;;;;;;;;;;;13.80;62.63;102206.25;7351658;19;19990;-63
2023/04/08 09:29:03;;;;;;;;;;;;;;;13.86;61.68;102208.34;7354125;19;19998;-62
2023/04/08 09:31:53;;;;;;;;;;;;;;;13.88;61.02;102208.19;7353478;19;19956;-61
2023/04/08 09:34:22;;;;;;;;;;;;;;;13.95;59.76;102206.66;7350123;19;21206;-64
2023/04/08 09:36:49;;;;;;;;;;;;;;;13.94;60.07;102208.47;7351088;19;19975;-67
2023/04/08 09:39:16;;;;;;;;;;;;;;;14.03;60.63;102209.44;7353997;19;20556;-62
2023/04/08 09:41:46;;;;;;;;;;;;;;;14.09;62.05;102219.47;7355330;19;19958;-63
2023/04/08 09:44:15;;;;;;;;;;;;;;;14.13;61.44;102215.53;7352280;19;20014;-63
2023/04/08 09:46:45;;;;;;;;;;;;;;;14.19;59.89;102217.63;7349973;19;19922;-60
2023/04/08 09:49:17;;;;;;;;;;;;;;;14.26;59.30;102215.25;7351790;19;19958;-65
2023/04/08 09:51:48;;;;;;;;;;;;;;;14.43;58.21;102217.19;7354465;19;20531;-63
2023/04/08 09:54:20;;;;;;;;;;;;;;;14.63;57.08;102218.00;7350430;19;19961;-62
2023/04/08 09:56:50;;;;;;;;;;;;;;;14.64;56.42;102227.59;7349825;19;19991;-61
2023/04/08 09:59:20;;;;;;;;;;;;;;;14.70;57.93;102219.06;7352736;19;20579;-62
2023/04/08 10:01:51;;;;;;;;;;;;;;;14.77;57.12;102225.47;7352778;19;21109;-62
2023/04/08 10:04:19;;;;;;;;;;;;;;;14.88;57.46;102231.38;7344849;19;20426;-61
2023/04/08 10:06:52;;;;;;;;;;;;;;;14.97;56.35;102227.06;7348245;19;20578;-63
2023/04/08 10:09:21;;;;;;;;;;;;;;;15.08;54.74;102224.22;7353553;19;19978;-62
2023/04/08 10:11:49;;;;;;;;;;;;;;;15.14;55.36;102230.72;7352920;19;19915;-61
2023/04/08 10:14:16;;;;;;;;;;;;;;;15.13;55.36;102224.59;7352742;19;20058;-64
2023/04/08 10:16:43;;;;;;;;;;;;;;;15.02;56.61;102219.50;7346017;19;20406;-63
2023/04/08 10:19:13;;;;;;;;;;;;;;;14.98;56.30;102221.56;7349653;19;19922;-63
2023/04/08 10:24:10;;;;;;;;;;;;;;;14.94;57.18;102222.88;7352215;19;19929;-63
2023/04/08 10:26:38;;;;;;;;;;;;;;;14.92;56.71;102216.88;7347570;19;19991;-62
2023/04/08 10:29:09;;;;;;;;;;;;;;;14.96;55.04;102220.91;7351997;19;20309;-61
2023/04/08 10:31:39;;;;;;;;;;;;;;;14.96;55.23;102222.72;7351022;19;20733;-63
2023/04/08 10:34:09;;;;;;;;;;;;;;;15.01;55.03;102220.47;7348874;19;20594;-63
2023/04/08 10:36:36;;;;;;;;;;;;;;;15.00;56.07;102216.13;7348376;19;19923;-64
2023/04/08 10:39:03;;;;;;;;;;;;;;;15.01;57.49;102215.16;7351833;19;19923;-65
2023/04/08 10:41:30;;;;;;;;;;;;;;;15.06;56.39;102210.25;7352151;19;20582;-63
2023/04/08 10:43:58;;;;;;;;;;;;;;;15.04;56.67;102208.72;7351767;19;20272;-62
2023/04/08 10:46:27;;;;;;;;;;;;;;;15.06;56.81;102204.94;7347887;19;19979;-64
2023/04/08 10:48:57;;;;;;;;;;;;;;;15.06;56.28;102202.31;7351888;19;19926;-62
2023/04/08 10:51:24;;;;;;;;;;;;;;;15.03;56.38;102199.97;7351653;19;20054;-62
2023/04/08 10:53:51;;;;;;;;;;;;;;;15.05;56.42;102200.63;7349380;19;20343;-63
2023/04/08 10:56:19;;;;;;;;;;;;;;;14.96;55.31;102194.41;7347606;19;19939;-62
2023/04/08 10:58:48;;;;;;;;;;;;;;;14.99;55.51;102194.09;7351069;19;19922;-62
2023/04/08 11:01:15;;;;;;;;;;;;;;;15.05;53.46;102191.84;7350482;19;20024;-63
2023/04/08 11:03:42;;;;;;;;;;;;;;;15.05;53.42;102192.66;7350283;19;19915;-63
2023/04/08 11:06:10;;;;;;;;;;;;;;;15.01;54.25;102186.00;7344698;19;19919;-62
2023/04/08 11:08:37;;;;;;;;;;;;;;;14.99;54.60;102191.44;7350021;19;19966;-62
2023/04/08 11:11:07;;;;;;;;;;;;;;;15.04;54.64;102193.66;7351036;19;19918;-63
2023/04/08 11:13:35;;;;;;;;;;;;;;;15.05;55.12;102182.06;7352151;19;20015;-63
2023/04/08 11:16:03;;;;;;;;;;;;;;;15.04;54.71;102177.75;7346717;19;19939;-64
2023/04/08 11:18:44;;;;;;;;;;;;;;;15.00;54.65;102184.34;7357773;19;21056;-62
2023/04/08 11:21:11;;;;;;;;;;;;;;;15.11;52.56;102181.47;7357736;19;20337;-63
2023/04/08 11:23:38;;;;;;;;;;;;;;;15.12;52.68;102179.66;7358221;19;19918;-62
2023/04/08 11:26:05;;;;;;;;;;;;;;;15.11;52.90;102181.47;7353714;19;19926;-63
2023/04/08 11:28:34;;;;;;;;;;;;;;;15.15;53.27;102180.19;7356521;19;20084;-63
2023/04/08 11:31:03;;;;;;;;;;;;;;;15.19;53.54;102183.38;7357364;19;20215;-63
2023/04/08 11:33:30;;;;;;;;;;;;;;;15.08;53.18;102189.75;7356240;19;20364;-63
2023/04/08 11:36:00;;;;;;;;;;;;;;;15.18;52.07;102184.38;7353412;19;19943;-62
2023/04/08 11:38:28;;;;;;;;;;;;;;;15.19;52.14;102189.50;7353231;19;19925;-62
2023/04/08 11:40:57;;;;;;;;;;;;;;;15.23;52.08;102190.06;7360085;19;19947;-63
2023/04/08 11:43:25;;;;;;;;;;;;;;;15.18;52.54;102177.25;7358117;19;19911;-62
2023/04/08 11:45:52;;;;;;;;;;;;;;;15.11;52.67;102175.34;7354861;19;19914;-65
2023/04/08 11:48:19;;;;;;;;;;;;;;;15.12;52.21;102182.31;7355006;19;19940;-62
2023/04/08 11:50:46;;;;;;;;;;;;;;;15.22;51.89;102180.44;7359520;19;20002;-63
2023/04/08 11:53:16;;;;;;;;;;;;;;;15.33;51.78;102182.88;7353365;19;19935;-63
2023/04/08 11:55:45;;;;;;;;;;;;;;;15.33;50.63;102183.72;7353795;19;19933;-63
2023/04/08 11:58:13;;;;;;;;;;;;;;;15.28;49.79;102182.50;7355406;19;20042;-62
2023/04/08 12:00:40;;;;;;;;;;;;;;;15.19;50.79;102172.75;7356160;19;19927;-63
2023/04/08 12:03:07;;;;;;;;;;;;;;;14.93;49.94;102162.06;7354252;19;19919;-64
2023/04/08 12:05:35;;;;;;;;;;;;;;;14.88;50.13;102166.97;7350733;19;19930;-62
2023/04/08 12:08:02;;;;;;;;;;;;;;;14.80;50.16;102167.69;7351989;19;20517;-63
2023/04/08 12:10:29;;;;;;;;;;;;;;;14.86;51.09;102166.28;7357996;19;20536;-63
2023/04/08 12:12:56;;;;;;;;;;;;;;;14.98;51.30;102157.97;7356821;19;20548;-62
2023/04/08 12:15:23;;;;;;;;;;;;;;;15.08;51.04;102167.69;7353510;19;19930;-63
2023/04/08 12:17:50;;;;;;;;;;;;;;;15.10;50.36;102165.72;7354154;19;19962;-63
2023/04/08 12:20:17;;;;;;;;;;;;;;;15.11;50.23;102175.34;7359483;19;19922;-64
2023/04/08 12:22:44;;;;;;;;;;;;;;;15.09;50.66;102161.38;7357202;19;20339;-61
2023/04/08 12:25:11;;;;;;;;;;;;;;;15.08;50.53;102165.03;7355060;19;19915;-62
2023/04/08 12:27:38;;;;;;;;;;;;;;;15.08;51.07;102157.09;7353084;19;19956;-63
2023/04/08 12:30:06;;;;;;;;;;;;;;;15.10;49.91;102158.59;7355799;19;20509;-63
2023/04/08 12:32:35;;;;;;;;;;;;;;;15.08;50.45;102154.44;7353928;19;20009;-64
2023/04/08 12:35:02;;;;;;;;;;;;;;;15.15;49.36;102152.84;7354764;19;19922;-62
2023/04/08 12:37:32;;;;;;;;;;;;;;;15.26;49.80;102149.97;7353660;19;19923;-62
2023/04/08 12:39:59;;;;;;;;;;;;;;;15.40;50.77;102142.31;7358657;19;20435;-63
2023/04/08 12:42:26;;;;;;;;;;;;;;;15.47;47.45;102142.56;7358620;19;20038;-63
2023/04/08 12:44:54;;;;;;;;;;;;;;;15.39;48.00;102145.97;7352683;19;20225;-63